Detall de PIREP

Printer-friendly versionPDF version

[2013/01/25 17:26:00]
Flight IATA:CT0001
Pilot Number:012
Company ICAO:CAT
Aircraft Type:C750/F
PAX:4
Departing Airport: LEGE
Destination Airport: LEAL
Alternate Airport:LEPA
Online: VATSIM
Route:BGR UN855 POS UL129 LULAK UM603 GERVU
Flight Level:F290
No Slew and time accel
No pause
Crash detect
Detect pilot in Cockpit between each 30 and 45 minutes
17:26 Zero fuel Weight: 22641 Lbs, Fuel Weight: 3791 Lbs
17:26 VATSIM:LEGE 251700Z 25001KT 9999 FEW070 10/M00 Q1011
17:26 VATSIM:LEAL 251700Z 29008KT CAVOK 15/00 Q1014 NOSIG
17:27 VOICE CATALONIAN
17:32 Parking Brakes off
17:37 Take-off
17:37 Take off Weight: 26295 Lbs
17:37 Wind: 252º @ 001 Knots Heading: 197º
17:37 POS N41º 54´ 17´´ E002º 45´ 43´´
17:37 Gear Up: 153 Knots
17:37 Flaps:3 at 153 Knots
17:37 Flaps:2 at 169 Knots
17:37 Flaps:0 at 170 Knots
17:44 TOC
17:44 Fuel Weight: 3295 Lb
17:52 Wind:336º@076 Knots Heading: 185º Ground Speed: 551 Knots Altitude 28950 ft
18:07 Wind:337º@070 Knots Heading: 257º Ground Speed: 469 Knots Altitude 29012 ft
18:14 TOD
18:14 Fuel Weight: 2406 Lb
18:22 Wind:325º@035 Knots Heading: 259º Ground Speed: 384 Knots Altitude 16053 ft
18:31 Flaps:2 at 205 Knots
18:31 Flaps:3 at 196 Knots
18:31 Gear Down: 194 Knots
18:32 Flaps:4 at 168 Knots
18:33 Flaps:5 at 141 Knots
18:36 TouchDown:Rate -195 ft/min Speed: 113 Knots
18:36 VATSIM:LEAL 251800Z VRB01KT CAVOK 13/06 Q1015 NOSIG
18:36 Land
18:36 Wind:305º@005 Knots
18:36 Heading: 098º
18:36 Flight Duration: 00:59
18:36 Landing Weight: 24732 Lbs
18:36 POS N38º 16´ 54´´ W000º 33´ 16´´
18:39 Parking brakes on
18:39 Block to Block Duration: 01:07
18:39 Final Fuel: 2054 Lbls
18:39 Spent Fuel: 1737 Lbls
18:39 Flight Length: 395 NM
18:39 TOD Land Length: 104 NM

Exportar CSV

Powered by Drupal - Modified by Danger4k